createdAt,value
2019-02-14T00:00:23.793Z,100431.26
2019-02-14T00:02:52.747Z,100421.20
2019-02-14T00:05:20.946Z,100421.20
2019-02-14T00:07:49.567Z,100423.43
2019-02-14T00:10:19.429Z,100420.91
2019-02-14T00:12:48.068Z,100419.50
2019-02-14T00:15:15.958Z,100419.27
2019-02-14T00:17:48.037Z,100423.41
2019-02-14T00:20:16.459Z,100417.61
2019-02-14T00:22:45.311Z,100417.61
2019-02-14T00:25:13.359Z,100406.08
2019-02-14T00:27:41.974Z,100403.53
2019-02-14T00:30:10.359Z,100403.53
2019-02-14T00:32:39.394Z,100399.24
2019-02-14T00:35:08.086Z,100398.81
2019-02-14T00:37:36.456Z,100394.64
2019-02-14T00:40:04.472Z,100393.77
2019-02-14T00:42:33.356Z,100392.29
2019-02-14T00:45:01.739Z,100390.06
2019-02-14T00:47:30.720Z,100391.22
2019-02-14T00:49:59.375Z,100391.22
2019-02-14T00:52:28.037Z,100388.12
2019-02-14T00:54:57.741Z,100385.31
2019-02-14T00:57:26.347Z,100396.11
2019-02-14T00:59:54.919Z,100392.98
2019-02-14T01:02:23.762Z,100395.00
2019-02-14T01:04:52.790Z,100398.03
2019-02-14T01:07:21.067Z,100388.34
2019-02-14T01:09:50.217Z,100391.58
2019-02-14T01:12:19.227Z,100391.52
2019-02-14T01:14:48.598Z,100395.66
2019-02-14T01:17:17.030Z,100397.45
2019-02-14T01:19:47.882Z,100396.98
2019-02-14T01:22:16.482Z,100396.19
2019-02-14T01:24:44.904Z,100390.64
2019-02-14T01:27:13.306Z,100389.45
2019-02-14T01:29:41.716Z,100381.46
2019-02-14T01:32:09.491Z,100378.80
2019-02-14T01:34:37.099Z,100384.56
2019-02-14T01:37:04.848Z,100373.36
2019-02-14T01:39:33.724Z,100373.91
2019-02-14T01:42:01.753Z,100368.71
2019-02-14T01:44:30.766Z,100371.45
2019-02-14T01:46:58.484Z,100373.29
2019-02-14T01:51:44.226Z,100366.48
2019-02-14T01:54:12.300Z,100373.00
2019-02-14T01:56:40.196Z,100366.63
2019-02-14T01:59:08.338Z,100371.45
2019-02-14T02:01:55.462Z,100370.45
2019-02-14T02:04:23.699Z,100364.47
2019-02-14T02:06:50.835Z,100364.52
2019-02-14T02:09:18.929Z,100371.89
2019-02-14T02:11:47.724Z,100366.45
2019-02-14T02:14:16.729Z,100363.79
2019-02-14T02:16:45.312Z,100368.66
2019-02-14T02:19:12.932Z,100358.89
2019-02-14T02:21:41.053Z,100362.28
2019-02-14T02:24:08.353Z,100360.62
2019-02-14T02:26:36.183Z,100356.52
2019-02-14T02:29:03.545Z,100355.91
2019-02-14T02:31:31.130Z,100333.77
2019-02-14T02:33:58.643Z,100333.77
2019-02-14T02:36:26.043Z,100355.01
2019-02-14T02:38:54.130Z,100348.34
2019-02-14T02:41:21.245Z,100353.31
2019-02-14T02:44:09.107Z,100339.02
2019-02-14T02:46:37.071Z,100339.02
2019-02-14T02:49:05.134Z,100337.16
2019-02-14T02:51:32.251Z,100337.01
2019-02-14T02:53:59.406Z,100347.59
2019-02-14T02:56:26.546Z,100336.33
2019-02-14T02:58:53.701Z,100353.36
2019-02-14T03:01:20.817Z,100353.50
2019-02-14T03:03:48.134Z,100350.58
2019-02-14T03:06:15.536Z,100355.01
2019-02-14T03:08:43.193Z,100356.02
2019-02-14T03:11:10.322Z,100360.91
2019-02-14T03:13:37.437Z,100357.23
2019-02-14T03:16:04.529Z,100357.34
2019-02-14T03:18:31.975Z,100363.47
2019-02-14T03:20:59.399Z,100364.59
2019-02-14T03:23:26.506Z,100365.45
2019-02-14T03:25:54.157Z,100368.11
2019-02-14T03:28:21.574Z,100365.77
2019-02-14T03:30:49.102Z,100365.70
2019-02-14T03:33:16.150Z,100358.36
2019-02-14T03:35:43.331Z,100355.70
2019-02-14T03:38:10.540Z,100353.67
2019-02-14T03:40:37.979Z,100355.70
2019-02-14T03:43:05.444Z,100354.69
2019-02-14T03:45:32.635Z,100350.91
2019-02-14T03:47:59.817Z,100350.58
2019-02-14T03:50:27.508Z,100358.93
2019-02-14T03:52:54.724Z,100363.46
2019-02-14T03:55:22.005Z,100368.11
2019-02-14T03:57:49.215Z,100364.94
2019-02-14T04:00:16.536Z,100368.68
2019-02-14T04:02:43.720Z,100371.09
2019-02-14T04:05:10.883Z,100380.06
2019-02-14T04:07:38.117Z,100380.66
2019-02-14T04:10:06.699Z,100379.44
2019-02-14T04:12:34.912Z,100393.84
2019-02-14T04:15:02.987Z,100394.59
2019-02-14T04:17:30.421Z,100391.59
2019-02-14T04:19:57.890Z,100389.48
2019-02-14T04:22:25.105Z,100385.91
2019-02-14T04:24:54.479Z,100386.63
2019-02-14T04:27:22.204Z,100392.78
2019-02-14T04:29:50.607Z,100393.21
2019-02-14T04:32:19.127Z,100390.13
2019-02-14T04:34:47.242Z,100389.00
2019-02-14T04:37:15.745Z,100397.82
2019-02-14T04:39:44.300Z,100385.15
2019-02-14T04:42:15.102Z,100385.15
2019-02-14T04:44:43.333Z,100400.86
2019-02-14T04:47:12.727Z,100397.72
2019-02-14T04:49:42.000Z,100393.34
2019-02-14T04:52:10.281Z,100400.56
2019-02-14T04:54:39.312Z,100394.39
2019-02-14T04:57:08.276Z,100406.27
2019-02-14T04:59:37.214Z,100407.70
2019-02-14T05:02:08.707Z,100405.47
2019-02-14T05:06:13.847Z,100402.16
2019-02-14T05:08:42.126Z,100409.33
2019-02-14T05:11:09.872Z,100389.86
2019-02-14T05:13:38.552Z,100406.05
2019-02-14T05:16:05.823Z,100402.61
2019-02-14T05:18:33.057Z,100403.36
2019-02-14T05:21:00.978Z,100399.95
2019-02-14T05:23:29.223Z,100399.95
2019-02-14T05:25:56.658Z,100403.81
2019-02-14T05:28:23.929Z,100410.47
2019-02-14T05:30:52.320Z,100405.81
2019-02-14T05:33:20.378Z,100404.70
2019-02-14T05:35:48.802Z,100407.22
2019-02-14T05:38:17.134Z,100414.22
2019-02-14T05:40:46.051Z,100412.78
2019-02-14T05:43:13.379Z,100418.53
2019-02-14T05:45:41.553Z,100418.10
2019-02-14T05:48:09.629Z,100408.98
2019-02-14T05:50:37.386Z,100409.27
2019-02-14T05:53:04.606Z,100406.53
2019-02-14T05:55:32.407Z,100411.42
2019-02-14T05:57:59.989Z,100414.66
2019-02-14T06:00:28.446Z,100417.05
2019-02-14T06:02:55.757Z,100417.81
2019-02-14T06:05:23.023Z,100413.47
2019-02-14T06:07:50.282Z,100417.73
2019-02-14T06:10:17.597Z,100418.77
2019-02-14T06:13:05.033Z,100432.11
2019-02-14T06:15:32.532Z,100437.16
2019-02-14T06:18:00.009Z,100447.71
2019-02-14T06:20:27.277Z,100450.73
2019-02-14T06:22:54.512Z,100445.69
2019-02-14T06:25:21.750Z,100447.71
2019-02-14T06:27:50.730Z,100454.93
2019-02-14T06:30:18.286Z,100451.77
2019-02-14T06:32:45.497Z,100451.77
2019-02-14T06:35:13.082Z,100452.25
2019-02-14T06:37:40.304Z,100452.06
2019-02-14T06:40:09.204Z,100455.14
2019-02-14T06:42:37.041Z,100462.18
2019-02-14T06:47:47.436Z,100463.62
2019-02-14T06:50:14.775Z,100471.61
2019-02-14T06:52:43.207Z,100471.61
2019-02-14T06:55:10.791Z,100475.21
2019-02-14T06:57:38.976Z,100476.02
2019-02-14T07:00:09.092Z,100474.08
2019-02-14T07:02:37.241Z,100479.82
2019-02-14T07:05:06.054Z,100479.48
2019-02-14T07:07:33.886Z,100484.14
2019-02-14T07:10:02.190Z,100439.79
2019-02-14T07:12:29.410Z,100481.90
2019-02-14T07:14:57.199Z,100478.33
2019-02-14T07:17:24.834Z,100484.14
2019-02-14T07:19:53.114Z,100479.04
2019-02-14T07:22:21.016Z,100482.84
2019-02-14T07:24:49.705Z,100475.53
2019-02-14T07:27:16.929Z,100478.20
2019-02-14T07:29:44.487Z,100474.14
2019-02-14T07:32:12.759Z,100473.94
2019-02-14T07:34:40.363Z,100437.77
2019-02-14T07:37:08.641Z,100474.14
2019-02-14T07:39:37.082Z,100478.47
2019-02-14T07:42:05.243Z,100482.46
2019-02-14T07:44:33.300Z,100484.42
2019-02-14T07:47:01.032Z,100484.42
2019-02-14T07:50:04.791Z,100486.48
2019-02-14T07:52:32.452Z,100489.08
2019-02-14T07:55:00.419Z,100492.65
2019-02-14T07:57:28.054Z,100491.17
2019-02-14T07:59:55.471Z,100496.94
2019-02-14T08:02:23.093Z,100495.70
2019-02-14T08:04:50.556Z,100491.53
2019-02-14T08:07:18.822Z,100412.67
2019-02-14T08:09:47.351Z,100492.45
2019-02-14T08:12:15.176Z,100492.45
2019-02-14T08:14:43.225Z,100495.11
2019-02-14T08:17:10.998Z,100503.47
2019-02-14T08:19:39.408Z,100499.24
2019-02-14T08:22:07.053Z,100506.20
2019-02-14T08:24:34.702Z,100513.86
2019-02-14T08:27:02.568Z,100504.72
2019-02-14T08:29:30.946Z,100502.03
2019-02-14T08:31:58.821Z,100503.89
2019-02-14T08:34:27.488Z,100505.09
2019-02-14T08:36:56.198Z,100500.06
2019-02-14T08:39:23.455Z,100500.06
2019-02-14T08:41:51.131Z,100522.92
2019-02-14T08:44:18.657Z,100518.89
2019-02-14T08:46:46.700Z,100518.89
2019-02-14T08:49:15.124Z,100514.02
2019-02-14T08:51:42.872Z,100508.36
2019-02-14T08:54:10.884Z,100508.36
2019-02-14T08:56:38.216Z,100510.80
2019-02-14T08:59:05.753Z,100507.42
2019-02-14T09:01:33.391Z,100505.67
2019-02-14T09:04:00.629Z,100505.92
2019-02-14T09:06:28.559Z,100501.45
2019-02-14T09:08:56.121Z,100501.02
2019-02-14T09:11:23.942Z,100501.33
2019-02-14T09:13:51.423Z,100500.58
2019-02-14T09:16:19.078Z,100503.70
2019-02-14T09:18:46.368Z,100497.47
2019-02-14T09:21:13.929Z,100500.88
2019-02-14T09:23:41.890Z,100485.08
2019-02-14T09:26:10.589Z,100493.92
2019-02-14T09:28:39.278Z,100433.27
2019-02-14T09:31:08.258Z,100489.59
2019-02-14T09:33:37.335Z,100500.00
2019-02-14T09:36:06.087Z,100493.73
2019-02-14T09:38:34.659Z,100487.59
2019-02-14T09:41:03.246Z,100489.42
2019-02-14T09:43:31.430Z,100487.14
2019-02-14T09:46:00.775Z,100494.91
2019-02-14T09:48:29.444Z,100493.97
2019-02-14T09:50:58.159Z,100490.63
2019-02-14T09:53:26.569Z,100498.77
2019-02-14T09:55:54.463Z,100498.77
2019-02-14T09:58:22.787Z,100505.50
2019-02-14T10:00:51.097Z,100501.00
2019-02-14T10:03:20.901Z,100492.14
2019-02-14T10:05:49.574Z,100486.89
2019-02-14T10:08:18.374Z,100484.50
2019-02-14T10:10:46.943Z,100485.31
2019-02-14T10:13:15.280Z,100494.77
2019-02-14T10:15:43.940Z,100490.56
2019-02-14T10:18:12.499Z,100486.61
2019-02-14T10:20:40.997Z,100487.16
2019-02-14T10:23:09.043Z,100491.73
2019-02-14T10:25:37.373Z,100486.53
2019-02-14T10:28:05.399Z,100487.70
2019-02-14T10:30:34.324Z,100484.91
2019-02-14T10:33:02.855Z,100476.41
2019-02-14T10:35:30.914Z,100484.31
2019-02-14T10:38:00.076Z,100476.86
2019-02-14T10:40:28.384Z,100480.73
2019-02-14T10:42:57.359Z,100479.77
2019-02-14T10:45:26.061Z,100475.78
2019-02-14T10:47:54.156Z,100471.45
2019-02-14T10:50:23.028Z,100475.33
2019-02-14T10:52:51.926Z,100466.11
2019-02-14T10:55:20.472Z,100465.83
2019-02-14T10:57:48.707Z,100463.19
2019-02-14T11:00:19.517Z,100460.77
2019-02-14T11:02:49.100Z,100462.20
2019-02-14T11:05:19.451Z,100455.23
2019-02-14T11:07:48.157Z,100431.50
2019-02-14T11:10:16.328Z,100431.50
2019-02-14T11:12:45.181Z,100442.56
2019-02-14T11:15:15.561Z,100442.00
2019-02-14T11:17:45.026Z,100436.14
2019-02-14T11:20:13.806Z,100443.98
2019-02-14T11:22:43.293Z,100447.50
2019-02-14T11:25:17.330Z,100441.03
2019-02-14T11:27:45.496Z,100436.42
2019-02-14T11:30:13.763Z,100445.43
2019-02-14T11:32:42.914Z,100427.61
2019-02-14T11:35:12.149Z,100427.61
2019-02-14T11:37:40.823Z,100436.59
2019-02-14T11:40:10.691Z,100435.70
2019-02-14T11:42:39.202Z,100430.79
2019-02-14T11:45:11.575Z,100423.97
2019-02-14T11:50:08.928Z,100421.01
2019-02-14T11:52:37.373Z,100415.38
2019-02-14T11:55:06.400Z,100419.30
2019-02-14T11:57:35.461Z,100416.98
2019-02-14T12:00:05.599Z,100417.34
2019-02-14T12:02:34.470Z,100414.95
2019-02-14T12:05:03.740Z,100411.83
2019-02-14T12:07:31.937Z,100411.83
2019-02-14T12:09:59.952Z,100411.48
2019-02-14T12:12:28.349Z,100394.17
2019-02-14T12:14:57.313Z,100398.47
2019-02-14T12:17:25.621Z,100390.81
2019-02-14T12:19:55.055Z,100389.83
2019-02-14T12:22:22.889Z,100383.37
2019-02-14T12:24:52.324Z,100383.37
2019-02-14T12:27:21.847Z,100357.34
2019-02-14T12:29:49.732Z,100357.34
2019-02-14T12:32:18.663Z,100356.93
2019-02-14T12:34:48.334Z,100342.74
2019-02-14T12:37:16.913Z,100342.74
2019-02-14T12:39:45.479Z,100349.98
2019-02-14T12:42:15.107Z,100348.46
2019-02-14T12:44:44.264Z,100344.27
2019-02-14T12:47:12.724Z,100345.55
2019-02-14T12:49:41.266Z,100337.22
2019-02-14T12:52:09.189Z,100335.78
2019-02-14T12:54:37.175Z,100330.25
2019-02-14T12:57:05.929Z,100308.07
2019-02-14T12:59:36.098Z,100308.07
2019-02-14T13:02:04.768Z,100323.27
2019-02-14T13:04:33.269Z,100317.45
2019-02-14T13:07:01.578Z,100318.47
2019-02-14T13:09:31.021Z,100315.05
2019-02-14T13:12:00.633Z,100313.58
2019-02-14T13:14:29.798Z,100312.88
2019-02-14T13:16:58.938Z,100313.55
2019-02-14T13:19:27.828Z,100310.84
2019-02-14T13:21:56.458Z,100306.41
2019-02-14T13:24:25.065Z,100302.70
2019-02-14T13:26:55.195Z,100302.97
2019-02-14T13:29:23.013Z,100296.28
2019-02-14T13:31:51.122Z,100295.53
2019-02-14T13:34:19.646Z,100294.52
2019-02-14T13:36:47.763Z,100294.63
2019-02-14T13:39:15.823Z,100295.10
2019-02-14T13:41:44.098Z,100283.69
2019-02-14T13:44:12.635Z,100283.69
2019-02-14T13:46:40.483Z,100282.42
2019-02-14T13:49:08.914Z,100285.88
2019-02-14T13:51:37.142Z,100276.92
2019-02-14T13:54:06.003Z,100286.25
2019-02-14T13:56:35.540Z,100289.36
2019-02-14T13:59:04.208Z,100288.69
2019-02-14T14:01:32.231Z,100278.14
2019-02-14T14:04:01.511Z,100279.12
2019-02-14T14:06:30.473Z,100276.10
2019-02-14T14:08:58.501Z,100273.73
2019-02-14T14:11:26.282Z,100280.94
2019-02-14T14:13:54.297Z,100283.09
2019-02-14T14:16:22.605Z,100268.94
2019-02-14T14:18:51.293Z,100265.16
2019-02-14T14:21:19.108Z,100264.45
2019-02-14T14:23:47.558Z,100268.46
2019-02-14T14:26:15.464Z,100259.57
2019-02-14T14:29:16.417Z,100258.94
2019-02-14T14:31:43.623Z,100254.33
2019-02-14T14:34:11.420Z,100250.81
2019-02-14T14:36:39.869Z,100244.52
2019-02-14T14:39:07.435Z,100242.29
2019-02-14T14:41:34.663Z,100235.75
2019-02-14T14:44:14.385Z,100234.42
2019-02-14T14:47:02.457Z,100233.98
2019-02-14T14:49:29.959Z,100231.59
2019-02-14T14:51:57.886Z,100236.49
2019-02-14T14:54:25.797Z,100227.88
2019-02-14T14:56:53.189Z,100222.89
2019-02-14T14:59:21.111Z,100224.63
2019-02-14T15:01:48.951Z,100234.64
2019-02-14T15:04:16.841Z,100233.22
2019-02-14T15:06:44.671Z,100231.95
2019-02-14T15:09:12.533Z,100225.45
2019-02-14T15:11:41.006Z,100235.84
2019-02-14T15:16:24.359Z,100232.16
2019-02-14T15:18:52.242Z,100236.91
2019-02-14T15:21:20.432Z,100240.04
2019-02-14T15:23:48.061Z,100239.86
2019-02-14T15:26:15.279Z,100235.98
2019-02-14T15:28:42.800Z,100252.71
2019-02-14T15:31:10.648Z,100251.55
2019-02-14T15:33:42.903Z,100251.61
2019-02-14T15:36:10.117Z,100257.34
2019-02-14T15:38:37.364Z,100252.43
2019-02-14T15:41:05.173Z,100248.14
2019-02-14T15:43:33.753Z,100247.91
2019-02-14T15:46:01.726Z,100243.36
2019-02-14T15:48:28.938Z,100245.47
2019-02-14T15:50:56.685Z,100248.66
2019-02-14T15:53:25.835Z,100247.32
2019-02-14T15:55:53.810Z,100243.53
2019-02-14T15:58:21.659Z,100246.66
2019-02-14T16:00:49.975Z,100243.53
2019-02-14T16:03:19.626Z,100240.69
2019-02-14T16:05:46.943Z,100245.84
2019-02-14T16:08:15.521Z,100252.71
2019-02-14T16:10:58.811Z,100240.86
2019-02-14T16:13:29.136Z,100258.96
2019-02-14T16:15:58.767Z,100259.11
2019-02-14T16:18:27.249Z,100255.23
2019-02-14T16:20:54.502Z,100255.33
2019-02-14T16:23:23.715Z,100177.02
2019-02-14T16:27:35.274Z,100256.89
2019-02-14T16:30:02.631Z,100256.89
2019-02-14T16:32:32.213Z,100245.33
2019-02-14T16:35:00.931Z,100250.21
2019-02-14T16:37:28.777Z,100252.71
2019-02-14T16:39:56.877Z,100253.26
2019-02-14T16:42:26.256Z,100252.52
2019-02-14T16:44:54.212Z,100248.10
2019-02-14T16:47:21.515Z,100251.64
2019-02-14T16:49:49.380Z,100239.80
2019-02-14T16:52:17.506Z,100239.80
2019-02-14T16:54:46.073Z,100247.22
2019-02-14T16:57:13.920Z,100234.13
2019-02-14T16:59:41.721Z,100234.13
2019-02-14T17:02:09.493Z,100253.34
2019-02-14T17:04:36.805Z,100249.52
2019-02-14T17:07:04.396Z,100249.52
2019-02-14T17:09:32.653Z,100254.95
2019-02-14T17:12:00.056Z,100257.39
2019-02-14T17:14:27.879Z,100255.14
2019-02-14T17:16:56.029Z,100257.64
2019-02-14T17:19:23.804Z,100265.26
2019-02-14T17:21:51.793Z,100265.58
2019-02-14T17:24:19.878Z,100261.57
2019-02-14T17:26:48.151Z,100269.75
2019-02-14T17:29:15.984Z,100273.70
2019-02-14T17:31:44.145Z,100263.31
2019-02-14T17:34:12.050Z,100272.31
2019-02-14T17:36:41.954Z,100269.38
2019-02-14T17:39:09.352Z,100268.77
2019-02-14T17:41:37.480Z,100269.78
2019-02-14T17:44:05.361Z,100265.05
2019-02-14T17:46:33.039Z,100273.62
2019-02-14T17:49:01.313Z,100274.19
2019-02-14T17:51:29.780Z,100275.02
2019-02-14T17:53:57.842Z,100271.44
2019-02-14T17:56:26.086Z,100274.07
2019-02-14T17:58:53.498Z,100276.80
2019-02-14T18:01:21.034Z,100284.04
2019-02-14T18:03:48.661Z,100275.75
2019-02-14T18:06:16.268Z,100285.97
2019-02-14T18:08:43.518Z,100283.75
2019-02-14T18:11:11.472Z,100285.52
2019-02-14T18:15:10.144Z,100287.10
2019-02-14T18:17:37.389Z,100296.67
2019-02-14T18:20:05.803Z,100298.28
2019-02-14T18:22:33.044Z,100291.06
2019-02-14T18:25:00.252Z,100302.81
2019-02-14T18:27:27.506Z,100301.64
2019-02-14T18:29:55.499Z,100307.70
2019-02-14T18:32:23.374Z,100304.87
2019-02-14T18:34:51.234Z,100300.22
2019-02-14T18:37:18.812Z,100304.41
2019-02-14T18:39:46.885Z,100297.17
2019-02-14T18:42:15.347Z,100308.28
2019-02-14T18:44:42.874Z,100301.52
2019-02-14T18:47:10.670Z,100309.46
2019-02-14T18:49:38.434Z,100301.68
2019-02-14T18:52:06.161Z,100300.41
2019-02-14T18:54:33.416Z,100282.77
2019-02-14T18:57:01.535Z,100282.77
2019-02-14T18:59:29.764Z,100286.88
2019-02-14T19:01:59.014Z,100303.41
2019-02-14T19:04:27.849Z,100296.12
2019-02-14T19:06:56.650Z,100302.67
2019-02-14T19:09:25.623Z,100300.30
2019-02-14T19:11:53.904Z,100308.72
2019-02-14T19:14:21.782Z,100302.81
2019-02-14T19:16:50.364Z,100298.52
2019-02-14T19:19:18.287Z,100288.58
2019-02-14T19:21:47.117Z,100288.58
2019-02-14T19:24:15.585Z,100289.17
2019-02-14T19:26:46.919Z,100285.91
2019-02-14T19:29:15.271Z,100280.72
2019-02-14T19:31:45.757Z,100275.98
2019-02-14T19:34:14.115Z,100275.22
2019-02-14T19:36:42.466Z,100266.39
2019-02-14T19:39:10.366Z,100267.37
2019-02-14T19:41:38.523Z,100264.20
2019-02-14T19:44:07.712Z,100259.88
2019-02-14T19:46:36.010Z,100260.87
2019-02-14T19:49:04.768Z,100259.67
2019-02-14T19:51:33.218Z,100262.34
2019-02-14T19:54:01.646Z,100260.78
2019-02-14T19:56:30.880Z,100268.88
2019-02-14T19:59:00.961Z,100265.84
2019-02-14T20:01:29.921Z,100266.21
2019-02-14T20:03:58.412Z,100269.45
2019-02-14T20:06:27.339Z,100265.23
2019-02-14T20:08:55.552Z,100266.12
2019-02-14T20:11:23.450Z,100261.89
2019-02-14T20:13:51.928Z,100253.55
2019-02-14T20:16:20.707Z,100259.36
2019-02-14T20:18:48.922Z,100250.66
2019-02-14T20:21:21.329Z,100248.12
2019-02-14T20:23:50.351Z,100255.36
2019-02-14T20:26:19.077Z,100251.52
2019-02-14T20:28:47.647Z,100246.91
2019-02-14T20:31:16.399Z,100251.80
2019-02-14T20:33:44.188Z,100255.80
2019-02-14T20:36:12.464Z,100254.78
2019-02-14T20:38:42.267Z,100257.30
2019-02-14T20:41:11.251Z,100253.47
2019-02-14T20:43:40.003Z,100253.47
2019-02-14T20:46:09.335Z,100260.58
2019-02-14T20:48:37.926Z,100260.20
2019-02-14T20:51:05.962Z,100256.25
2019-02-14T20:53:34.893Z,100255.53
2019-02-14T20:56:04.342Z,100255.53
2019-02-14T20:58:33.181Z,100259.09
2019-02-14T21:01:04.224Z,100265.86
2019-02-14T21:03:32.919Z,100267.41
2019-02-14T21:06:02.102Z,100267.86
2019-02-14T21:08:31.104Z,100267.58
2019-02-14T21:10:59.648Z,100272.14
2019-02-14T21:13:27.921Z,100266.81
2019-02-14T21:15:57.220Z,100279.13
2019-02-14T21:18:25.550Z,100275.86
2019-02-14T21:20:54.194Z,100278.81
2019-02-14T21:23:22.955Z,100275.09
2019-02-14T21:25:51.445Z,100274.14
2019-02-14T21:28:19.528Z,100279.86
2019-02-14T21:30:47.836Z,100271.26
2019-02-14T21:33:17.587Z,100273.35
2019-02-14T21:35:45.867Z,100271.76
2019-02-14T21:38:13.912Z,100272.08
2019-02-14T21:40:42.925Z,100267.58
2019-02-14T21:43:12.000Z,100273.35
2019-02-14T21:45:40.812Z,100274.53
2019-02-14T21:48:09.504Z,100269.35
2019-02-14T21:50:37.761Z,100271.64
2019-02-14T21:53:05.998Z,100277.92
2019-02-14T21:55:34.522Z,100282.97
2019-02-14T21:58:04.994Z,100279.70
2019-02-14T22:00:33.030Z,100270.47
2019-02-14T22:03:01.395Z,100270.47
2019-02-14T22:05:30.330Z,100272.59
2019-02-14T22:07:59.574Z,100281.35
2019-02-14T22:10:32.665Z,100274.81
2019-02-14T22:13:02.423Z,100266.75
2019-02-14T22:15:32.478Z,100269.03
2019-02-14T22:18:00.801Z,100271.86
2019-02-14T22:20:29.882Z,100277.48
2019-02-14T22:22:59.840Z,100280.75
2019-02-14T22:25:28.380Z,100282.08
2019-02-14T22:27:57.545Z,100280.23
2019-02-14T22:30:26.700Z,100281.64
2019-02-14T22:32:56.574Z,100282.81
2019-02-14T22:35:25.311Z,100286.91
2019-02-14T22:37:53.325Z,100286.68
2019-02-14T22:40:22.910Z,100290.08
2019-02-14T22:42:51.590Z,100285.63
2019-02-14T22:45:20.560Z,100283.57
2019-02-14T22:49:10.571Z,100278.53
2019-02-14T22:51:38.559Z,100277.52
2019-02-14T22:54:06.624Z,100277.52
2019-02-14T22:56:34.960Z,100284.62
2019-02-14T22:59:02.199Z,100286.23
2019-02-14T23:01:29.722Z,100282.84
2019-02-14T23:03:57.898Z,100279.34
2019-02-14T23:06:25.375Z,100288.62
2019-02-14T23:09:12.902Z,100295.28
2019-02-14T23:11:40.135Z,100281.50
2019-02-14T23:14:07.688Z,100277.28
2019-02-14T23:16:35.748Z,100275.28
2019-02-14T23:19:03.620Z,100274.84
2019-02-14T23:21:32.048Z,100278.26
2019-02-14T23:23:59.981Z,100276.77
2019-02-14T23:26:28.638Z,100277.34
2019-02-14T23:28:56.164Z,100274.84
2019-02-14T23:31:24.638Z,100265.51
2019-02-14T23:33:52.477Z,100268.46
2019-02-14T23:36:21.032Z,100264.62
2019-02-14T23:38:49.118Z,100267.57
2019-02-14T23:41:17.003Z,100270.23
2019-02-14T23:43:45.187Z,100275.56
2019-02-14T23:46:13.117Z,100269.95
2019-02-14T23:48:41.542Z,100269.66
2019-02-14T23:51:09.049Z,100268.02
2019-02-14T23:53:36.650Z,100277.81
2019-02-14T23:56:04.206Z,100268.39
2019-02-14T23:58:31.769Z,100267.72
